sensor_id;sensor_type;location;lat;lon;timestamp;P1;durP1;ratioP1;P2;durP2;ratioP2
291;SDS011;23311;48.776;9.162;2023-01-28T00:00:14;9.13;;;6.80;;
291;SDS011;23311;48.776;9.162;2023-01-28T00:02:46;9.83;;;6.43;;
291;SDS011;23311;48.776;9.162;2023-01-28T00:05:15;8.83;;;6.60;;
291;SDS011;23311;48.776;9.162;2023-01-28T00:07:47;6.60;;;6.07;;
291;SDS011;23311;48.776;9.162;2023-01-28T00:10:16;8.43;;;5.63;;
291;SDS011;23311;48.776;9.162;2023-01-28T00:12:46;8.77;;;6.50;;
291;SDS011;23311;48.776;9.162;2023-01-28T00:15:16;6.83;;;5.23;;
291;SDS011;23311;48.776;9.162;2023-01-28T00:17:47;7.17;;;5.73;;
291;SDS011;23311;48.776;9.162;2023-01-28T00:20:15;7.37;;;5.73;;
291;SDS011;23311;48.776;9.162;2023-01-28T00:22:45;6.90;;;5.23;;
291;SDS011;23311;48.776;9.162;2023-01-28T00:25:17;7.93;;;5.33;;
291;SDS011;23311;48.776;9.162;2023-01-28T00:27:47;8.00;;;6.20;;
291;SDS011;23311;48.776;9.162;2023-01-28T00:30:16;7.23;;;5.60;;
291;SDS011;23311;48.776;9.162;2023-01-28T00:32:45;8.03;;;5.90;;
291;SDS011;23311;48.776;9.162;2023-01-28T00:35:15;6.90;;;6.17;;
291;SDS011;23311;48.776;9.162;2023-01-28T00:37:44;6.70;;;5.00;;
291;SDS011;23311;48.776;9.162;2023-01-28T00:40:12;8.23;;;5.70;;
291;SDS011;23311;48.776;9.162;2023-01-28T00:42:40;6.93;;;5.83;;
291;SDS011;23311;48.776;9.162;2023-01-28T00:45:10;7.83;;;6.10;;
291;SDS011;23311;48.776;9.162;2023-01-28T00:47:39;4.87;;;4.47;;
291;SDS011;23311;48.776;9.162;2023-01-28T00:50:07;6.73;;;5.30;;
291;SDS011;23311;48.776;9.162;2023-01-28T00:52:36;9.53;;;5.80;;
291;SDS011;23311;48.776;9.162;2023-01-28T00:55:04;7.37;;;5.40;;
291;SDS011;23311;48.776;9.162;2023-01-28T00:57:33;7.00;;;5.30;;
291;SDS011;23311;48.776;9.162;2023-01-28T01:00:02;5.33;;;4.27;;
291;SDS011;23311;48.776;9.162;2023-01-28T01:02:32;6.20;;;4.60;;
291;SDS011;23311;48.776;9.162;2023-01-28T01:05:00;6.97;;;5.50;;
291;SDS011;23311;48.776;9.162;2023-01-28T01:07:29;6.37;;;4.33;;
291;SDS011;23311;48.776;9.162;2023-01-28T01:10:07;7.07;;;5.20;;
291;SDS011;23311;48.776;9.162;2023-01-28T01:12:36;6.90;;;5.67;;
291;SDS011;23311;48.776;9.162;2023-01-28T01:15:05;7.03;;;4.57;;
291;SDS011;23311;48.776;9.162;2023-01-28T01:17:37;6.40;;;5.47;;
291;SDS011;23311;48.776;9.162;2023-01-28T01:20:06;8.13;;;5.50;;
291;SDS011;23311;48.776;9.162;2023-01-28T01:22:36;7.10;;;5.40;;
291;SDS011;23311;48.776;9.162;2023-01-28T01:25:05;6.10;;;5.00;;
291;SDS011;23311;48.776;9.162;2023-01-28T01:27:34;6.10;;;5.43;;
291;SDS011;23311;48.776;9.162;2023-01-28T01:30:03;6.70;;;5.13;;
291;SDS011;23311;48.776;9.162;2023-01-28T01:32:33;8.10;;;5.17;;
291;SDS011;23311;48.776;9.162;2023-01-28T01:35:04;5.27;;;4.70;;
291;SDS011;23311;48.776;9.162;2023-01-28T01:37:33;6.83;;;5.17;;
291;SDS011;23311;48.776;9.162;2023-01-28T01:40:02;5.90;;;4.70;;
291;SDS011;23311;48.776;9.162;2023-01-28T01:42:32;6.40;;;4.60;;
291;SDS011;23311;48.776;9.162;2023-01-28T01:45:00;6.67;;;4.77;;
291;SDS011;23311;48.776;9.162;2023-01-28T01:47:32;7.07;;;5.20;;
291;SDS011;23311;48.776;9.162;2023-01-28T01:50:08;7.10;;;5.30;;
291;SDS011;23311;48.776;9.162;2023-01-28T01:52:42;6.40;;;5.57;;
291;SDS011;23311;48.776;9.162;2023-01-28T01:55:13;7.23;;;5.53;;
291;SDS011;23311;48.776;9.162;2023-01-28T01:57:44;7.00;;;5.13;;
291;SDS011;23311;48.776;9.162;2023-01-28T02:00:16;7.30;;;4.90;;
291;SDS011;23311;48.776;9.162;2023-01-28T02:02:45;7.13;;;5.73;;
291;SDS011;23311;48.776;9.162;2023-01-28T02:05:18;6.73;;;5.50;;
291;SDS011;23311;48.776;9.162;2023-01-28T02:07:49;6.27;;;5.00;;
291;SDS011;23311;48.776;9.162;2023-01-28T02:10:20;6.60;;;5.20;;
291;SDS011;23311;48.776;9.162;2023-01-28T02:12:50;7.30;;;5.37;;
291;SDS011;23311;48.776;9.162;2023-01-28T02:15:23;7.00;;;5.00;;
291;SDS011;23311;48.776;9.162;2023-01-28T02:17:55;5.50;;;4.93;;
291;SDS011;23311;48.776;9.162;2023-01-28T02:20:27;7.13;;;4.80;;
291;SDS011;23311;48.776;9.162;2023-01-28T02:23:15;6.70;;;5.30;;
291;SDS011;23311;48.776;9.162;2023-01-28T02:28:48;6.07;;;5.13;;
291;SDS011;23311;48.776;9.162;2023-01-28T02:31:22;6.53;;;5.00;;
291;SDS011;23311;48.776;9.162;2023-01-28T02:33:55;6.30;;;4.23;;
291;SDS011;23311;48.776;9.162;2023-01-28T02:36:27;5.50;;;4.60;;
291;SDS011;23311;48.776;9.162;2023-01-28T02:39:02;6.37;;;4.80;;
291;SDS011;23311;48.776;9.162;2023-01-28T02:41:45;5.83;;;5.03;;
291;SDS011;23311;48.776;9.162;2023-01-28T02:44:18;7.27;;;5.43;;
291;SDS011;23311;48.776;9.162;2023-01-28T02:46:46;6.10;;;4.27;;
291;SDS011;23311;48.776;9.162;2023-01-28T02:49:33;5.00;;;4.10;;
291;SDS011;23311;48.776;9.162;2023-01-28T02:52:12;7.13;;;5.20;;
291;SDS011;23311;48.776;9.162;2023-01-28T02:55:07;6.00;;;4.60;;
291;SDS011;23311;48.776;9.162;2023-01-28T02:57:42;6.20;;;4.63;;
291;SDS011;23311;48.776;9.162;2023-01-28T03:00:18;5.77;;;4.43;;
291;SDS011;23311;48.776;9.162;2023-01-28T03:02:50;7.13;;;5.07;;
291;SDS011;23311;48.776;9.162;2023-01-28T03:05:25;6.13;;;4.87;;
291;SDS011;23311;48.776;9.162;2023-01-28T03:07:57;7.60;;;5.10;;
291;SDS011;23311;48.776;9.162;2023-01-28T03:10:26;7.17;;;5.40;;
291;SDS011;23311;48.776;9.162;2023-01-28T03:12:55;6.33;;;5.30;;
291;SDS011;23311;48.776;9.162;2023-01-28T03:15:43;7.90;;;5.67;;
291;SDS011;23311;48.776;9.162;2023-01-28T03:18:34;7.00;;;5.57;;
291;SDS011;23311;48.776;9.162;2023-01-28T03:21:24;5.80;;;4.90;;
291;SDS011;23311;48.776;9.162;2023-01-28T03:24:16;8.20;;;7.00;;
291;SDS011;23311;48.776;9.162;2023-01-28T03:27:06;9.00;;;6.60;;
291;SDS011;23311;48.776;9.162;2023-01-28T03:29:59;10.63;;;7.27;;
291;SDS011;23311;48.776;9.162;2023-01-28T03:32:49;8.77;;;6.90;;
291;SDS011;23311;48.776;9.162;2023-01-28T03:35:34;6.87;;;6.00;;
291;SDS011;23311;48.776;9.162;2023-01-28T03:38:21;7.57;;;6.40;;
291;SDS011;23311;48.776;9.162;2023-01-28T03:40:51;9.20;;;7.60;;
291;SDS011;23311;48.776;9.162;2023-01-28T03:43:22;9.07;;;6.40;;
291;SDS011;23311;48.776;9.162;2023-01-28T03:45:50;7.30;;;6.37;;
291;SDS011;23311;48.776;9.162;2023-01-28T03:48:20;9.60;;;7.00;;
291;SDS011;23311;48.776;9.162;2023-01-28T03:50:50;8.43;;;7.10;;
291;SDS011;23311;48.776;9.162;2023-01-28T03:53:19;10.67;;;7.40;;
291;SDS011;23311;48.776;9.162;2023-01-28T03:55:48;9.47;;;6.90;;
291;SDS011;23311;48.776;9.162;2023-01-28T03:58:18;10.30;;;7.03;;
291;SDS011;23311;48.776;9.162;2023-01-28T04:00:47;10.83;;;7.90;;
291;SDS011;23311;48.776;9.162;2023-01-28T04:03:15;10.80;;;8.13;;
291;SDS011;23311;48.776;9.162;2023-01-28T04:05:56;11.10;;;7.93;;
291;SDS011;23311;48.776;9.162;2023-01-28T04:08:25;11.97;;;8.43;;
291;SDS011;23311;48.776;9.162;2023-01-28T04:10:53;10.70;;;8.20;;
291;SDS011;23311;48.776;9.162;2023-01-28T04:13:21;13.23;;;8.50;;
291;SDS011;23311;48.776;9.162;2023-01-28T04:15:50;10.90;;;8.63;;
291;SDS011;23311;48.776;9.162;2023-01-28T04:18:18;12.03;;;8.57;;
291;SDS011;23311;48.776;9.162;2023-01-28T04:20:53;11.77;;;8.63;;
291;SDS011;23311;48.776;9.162;2023-01-28T04:23:21;10.80;;;8.20;;
291;SDS011;23311;48.776;9.162;2023-01-28T04:25:49;15.53;;;11.00;;
291;SDS011;23311;48.776;9.162;2023-01-28T04:28:17;11.50;;;9.40;;
291;SDS011;23311;48.776;9.162;2023-01-28T04:30:45;10.40;;;7.73;;
291;SDS011;23311;48.776;9.162;2023-01-28T04:33:14;10.67;;;8.80;;
291;SDS011;23311;48.776;9.162;2023-01-28T04:35:42;9.53;;;7.50;;
291;SDS011;23311;48.776;9.162;2023-01-28T04:38:11;11.93;;;8.47;;
291;SDS011;23311;48.776;9.162;2023-01-28T04:40:39;11.77;;;8.40;;
291;SDS011;23311;48.776;9.162;2023-01-28T04:43:07;11.07;;;8.50;;
291;SDS011;23311;48.776;9.162;2023-01-28T04:45:35;10.73;;;8.07;;
291;SDS011;23311;48.776;9.162;2023-01-28T04:48:03;12.10;;;8.57;;
291;SDS011;23311;48.776;9.162;2023-01-28T04:50:31;10.90;;;8.87;;
291;SDS011;23311;48.776;9.162;2023-01-28T04:52:59;10.90;;;7.60;;
291;SDS011;23311;48.776;9.162;2023-01-28T04:55:29;11.80;;;9.20;;
291;SDS011;23311;48.776;9.162;2023-01-28T04:57:57;9.03;;;7.80;;
291;SDS011;23311;48.776;9.162;2023-01-28T05:00:25;10.37;;;8.20;;
291;SDS011;23311;48.776;9.162;2023-01-28T05:02:53;11.60;;;8.20;;
291;SDS011;23311;48.776;9.162;2023-01-28T05:05:21;10.17;;;8.40;;
291;SDS011;23311;48.776;9.162;2023-01-28T05:07:49;10.97;;;7.47;;
291;SDS011;23311;48.776;9.162;2023-01-28T05:10:18;8.90;;;7.27;;
291;SDS011;23311;48.776;9.162;2023-01-28T05:12:48;10.90;;;8.57;;
291;SDS011;23311;48.776;9.162;2023-01-28T05:15:16;9.27;;;8.37;;
291;SDS011;23311;48.776;9.162;2023-01-28T05:17:46;10.47;;;9.07;;
291;SDS011;23311;48.776;9.162;2023-01-28T05:20:14;9.17;;;8.20;;
291;SDS011;23311;48.776;9.162;2023-01-28T05:22:42;10.80;;;9.27;;
291;SDS011;23311;48.776;9.162;2023-01-28T05:25:10;10.97;;;9.00;;
291;SDS011;23311;48.776;9.162;2023-01-28T05:27:38;10.50;;;8.30;;
291;SDS011;23311;48.776;9.162;2023-01-28T05:30:08;10.43;;;8.40;;
291;SDS011;23311;48.776;9.162;2023-01-28T05:32:37;9.00;;;7.53;;
291;SDS011;23311;48.776;9.162;2023-01-28T05:35:06;12.70;;;8.60;;
291;SDS011;23311;48.776;9.162;2023-01-28T05:37:34;9.93;;;8.17;;
291;SDS011;23311;48.776;9.162;2023-01-28T05:40:03;10.03;;;7.77;;
291;SDS011;23311;48.776;9.162;2023-01-28T05:42:32;8.90;;;7.80;;
291;SDS011;23311;48.776;9.162;2023-01-28T05:45:00;12.10;;;9.03;;
291;SDS011;23311;48.776;9.162;2023-01-28T05:47:29;11.30;;;8.40;;
291;SDS011;23311;48.776;9.162;2023-01-28T05:49:57;15.70;;;10.70;;
291;SDS011;23311;48.776;9.162;2023-01-28T05:52:25;10.70;;;8.33;;
291;SDS011;23311;48.776;9.162;2023-01-28T05:54:53;11.30;;;9.23;;
291;SDS011;23311;48.776;9.162;2023-01-28T05:57:21;12.73;;;8.47;;
291;SDS011;23311;48.776;9.162;2023-01-28T05:59:49;10.17;;;8.53;;
291;SDS011;23311;48.776;9.162;2023-01-28T06:02:17;9.87;;;8.23;;
291;SDS011;23311;48.776;9.162;2023-01-28T06:04:46;9.20;;;8.13;;
291;SDS011;23311;48.776;9.162;2023-01-28T06:07:15;9.90;;;7.97;;
291;SDS011;23311;48.776;9.162;2023-01-28T06:09:45;11.40;;;8.27;;
291;SDS011;23311;48.776;9.162;2023-01-28T06:12:14;10.40;;;8.10;;
291;SDS011;23311;48.776;9.162;2023-01-28T06:14:42;10.70;;;8.20;;
291;SDS011;23311;48.776;9.162;2023-01-28T06:17:10;10.47;;;8.20;;
291;SDS011;23311;48.776;9.162;2023-01-28T06:19:38;9.53;;;8.10;;
291;SDS011;23311;48.776;9.162;2023-01-28T06:22:07;9.70;;;8.37;;
291;SDS011;23311;48.776;9.162;2023-01-28T06:24:35;10.70;;;8.07;;
291;SDS011;23311;48.776;9.162;2023-01-28T06:27:03;10.70;;;7.80;;
291;SDS011;23311;48.776;9.162;2023-01-28T06:29:31;10.90;;;8.37;;
291;SDS011;23311;48.776;9.162;2023-01-28T06:31:59;9.30;;;7.17;;
291;SDS011;23311;48.776;9.162;2023-01-28T06:34:27;9.00;;;7.50;;
291;SDS011;23311;48.776;9.162;2023-01-28T06:36:55;7.80;;;6.77;;
291;SDS011;23311;48.776;9.162;2023-01-28T06:39:25;9.30;;;7.00;;
291;SDS011;23311;48.776;9.162;2023-01-28T06:41:57;9.57;;;7.50;;
291;SDS011;23311;48.776;9.162;2023-01-28T06:44:25;12.03;;;8.47;;
291;SDS011;23311;48.776;9.162;2023-01-28T06:46:53;9.80;;;8.03;;
291;SDS011;23311;48.776;9.162;2023-01-28T06:49:21;10.77;;;8.47;;
291;SDS011;23311;48.776;9.162;2023-01-28T06:51:49;10.10;;;7.57;;
291;SDS011;23311;48.776;9.162;2023-01-28T06:54:18;10.33;;;7.83;;
291;SDS011;23311;48.776;9.162;2023-01-28T06:56:47;10.90;;;7.70;;
291;SDS011;23311;48.776;9.162;2023-01-28T06:59:15;10.90;;;8.13;;
291;SDS011;23311;48.776;9.162;2023-01-28T07:01:43;12.20;;;8.30;;
291;SDS011;23311;48.776;9.162;2023-01-28T07:04:11;9.60;;;8.20;;
291;SDS011;23311;48.776;9.162;2023-01-28T07:06:39;10.23;;;7.70;;
291;SDS011;23311;48.776;9.162;2023-01-28T07:09:07;11.90;;;9.03;;
291;SDS011;23311;48.776;9.162;2023-01-28T07:11:35;9.73;;;7.77;;
291;SDS011;23311;48.776;9.162;2023-01-28T07:14:05;11.90;;;9.40;;
291;SDS011;23311;48.776;9.162;2023-01-28T07:16:33;11.53;;;8.90;;
291;SDS011;23311;48.776;9.162;2023-01-28T07:19:01;11.10;;;8.57;;
291;SDS011;23311;48.776;9.162;2023-01-28T07:21:29;10.73;;;8.30;;
291;SDS011;23311;48.776;9.162;2023-01-28T07:23:57;10.83;;;9.03;;
291;SDS011;23311;48.776;9.162;2023-01-28T07:26:25;11.33;;;8.63;;
291;SDS011;23311;48.776;9.162;2023-01-28T07:28:53;11.17;;;9.20;;
291;SDS011;23311;48.776;9.162;2023-01-28T07:31:23;11.40;;;8.43;;
291;SDS011;23311;48.776;9.162;2023-01-28T07:33:51;11.80;;;8.67;;
291;SDS011;23311;48.776;9.162;2023-01-28T07:36:19;12.23;;;8.67;;
291;SDS011;23311;48.776;9.162;2023-01-28T07:38:47;11.87;;;9.73;;
291;SDS011;23311;48.776;9.162;2023-01-28T07:41:15;12.57;;;9.10;;
291;SDS011;23311;48.776;9.162;2023-01-28T07:43:43;11.90;;;8.50;;
291;SDS011;23311;48.776;9.162;2023-01-28T07:46:11;11.40;;;8.40;;
291;SDS011;23311;48.776;9.162;2023-01-28T07:48:41;11.07;;;8.90;;
291;SDS011;23311;48.776;9.162;2023-01-28T07:51:09;13.10;;;8.63;;
291;SDS011;23311;48.776;9.162;2023-01-28T07:53:37;12.60;;;9.00;;
291;SDS011;23311;48.776;9.162;2023-01-28T07:56:05;10.47;;;8.57;;
291;SDS011;23311;48.776;9.162;2023-01-28T07:58:33;12.33;;;9.23;;
291;SDS011;23311;48.776;9.162;2023-01-28T08:01:02;10.33;;;8.33;;
291;SDS011;23311;48.776;9.162;2023-01-28T08:03:30;10.90;;;8.87;;
291;SDS011;23311;48.776;9.162;2023-01-28T08:05:59;16.20;;;9.93;;
291;SDS011;23311;48.776;9.162;2023-01-28T08:08:27;12.77;;;9.70;;
291;SDS011;23311;48.776;9.162;2023-01-28T08:10:55;11.70;;;8.60;;
291;SDS011;23311;48.776;9.162;2023-01-28T08:13:23;10.63;;;8.63;;
291;SDS011;23311;48.776;9.162;2023-01-28T08:15:53;12.37;;;8.83;;
291;SDS011;23311;48.776;9.162;2023-01-28T08:18:22;12.83;;;10.13;;
291;SDS011;23311;48.776;9.162;2023-01-28T08:20:53;11.60;;;8.97;;
291;SDS011;23311;48.776;9.162;2023-01-28T08:23:23;12.23;;;8.70;;
291;SDS011;23311;48.776;9.162;2023-01-28T08:25:53;11.43;;;9.50;;
291;SDS011;23311;48.776;9.162;2023-01-28T08:28:21;12.10;;;10.10;;
291;SDS011;23311;48.776;9.162;2023-01-28T08:30:49;12.50;;;9.17;;
291;SDS011;23311;48.776;9.162;2023-01-28T08:33:18;11.40;;;9.03;;
291;SDS011;23311;48.776;9.162;2023-01-28T08:35:46;13.07;;;9.20;;
291;SDS011;23311;48.776;9.162;2023-01-28T08:38:14;11.57;;;9.43;;
291;SDS011;23311;48.776;9.162;2023-01-28T08:40:44;12.70;;;9.57;;
291;SDS011;23311;48.776;9.162;2023-01-28T08:43:12;11.00;;;8.87;;
291;SDS011;23311;48.776;9.162;2023-01-28T08:45:40;11.67;;;10.00;;
291;SDS011;23311;48.776;9.162;2023-01-28T08:48:10;11.50;;;9.30;;
291;SDS011;23311;48.776;9.162;2023-01-28T08:50:41;13.77;;;10.27;;
291;SDS011;23311;48.776;9.162;2023-01-28T08:53:10;12.30;;;10.27;;
291;SDS011;23311;48.776;9.162;2023-01-28T08:55:39;11.70;;;8.97;;
291;SDS011;23311;48.776;9.162;2023-01-28T08:58:10;11.33;;;9.13;;
291;SDS011;23311;48.776;9.162;2023-01-28T09:00:39;12.00;;;8.70;;
291;SDS011;23311;48.776;9.162;2023-01-28T09:03:08;15.80;;;9.80;;
291;SDS011;23311;48.776;9.162;2023-01-28T09:05:37;13.33;;;9.83;;
291;SDS011;23311;48.776;9.162;2023-01-28T09:08:06;11.77;;;9.93;;
291;SDS011;23311;48.776;9.162;2023-01-28T09:10:36;13.30;;;9.80;;
291;SDS011;23311;48.776;9.162;2023-01-28T09:13:05;12.30;;;8.70;;
291;SDS011;23311;48.776;9.162;2023-01-28T09:15:35;13.20;;;9.53;;
291;SDS011;23311;48.776;9.162;2023-01-28T09:18:03;12.90;;;8.90;;
291;SDS011;23311;48.776;9.162;2023-01-28T09:20:32;10.47;;;8.63;;
291;SDS011;23311;48.776;9.162;2023-01-28T09:23:00;13.03;;;9.33;;
291;SDS011;23311;48.776;9.162;2023-01-28T09:25:29;12.17;;;9.37;;
291;SDS011;23311;48.776;9.162;2023-01-28T09:27:57;13.03;;;8.70;;
291;SDS011;23311;48.776;9.162;2023-01-28T09:30:25;13.03;;;9.43;;
291;SDS011;23311;48.776;9.162;2023-01-28T09:32:55;15.50;;;9.63;;
291;SDS011;23311;48.776;9.162;2023-01-28T09:35:23;12.47;;;9.50;;
291;SDS011;23311;48.776;9.162;2023-01-28T09:37:55;13.23;;;9.40;;
291;SDS011;23311;48.776;9.162;2023-01-28T09:40:26;12.00;;;9.47;;
291;SDS011;23311;48.776;9.162;2023-01-28T09:43:02;13.60;;;9.50;;
291;SDS011;23311;48.776;9.162;2023-01-28T09:45:47;14.10;;;10.40;;
291;SDS011;23311;48.776;9.162;2023-01-28T09:48:18;12.87;;;9.13;;
291;SDS011;23311;48.776;9.162;2023-01-28T09:50:50;13.97;;;10.33;;
291;SDS011;23311;48.776;9.162;2023-01-28T09:53:20;14.63;;;10.93;;
291;SDS011;23311;48.776;9.162;2023-01-28T09:55:52;14.87;;;9.97;;
291;SDS011;23311;48.776;9.162;2023-01-28T09:58:22;13.60;;;9.93;;
291;SDS011;23311;48.776;9.162;2023-01-28T10:00:52;11.80;;;9.77;;
291;SDS011;23311;48.776;9.162;2023-01-28T10:03:42;14.73;;;9.90;;
291;SDS011;23311;48.776;9.162;2023-01-28T10:06:20;14.23;;;9.80;;
291;SDS011;23311;48.776;9.162;2023-01-28T10:11:53;12.47;;;10.00;;
291;SDS011;23311;48.776;9.162;2023-01-28T10:14:33;14.23;;;10.23;;
291;SDS011;23311;48.776;9.162;2023-01-28T10:17:10;16.63;;;10.13;;
291;SDS011;23311;48.776;9.162;2023-01-28T10:19:44;14.00;;;10.00;;
291;SDS011;23311;48.776;9.162;2023-01-28T10:22:17;13.97;;;9.90;;
291;SDS011;23311;48.776;9.162;2023-01-28T10:24:49;12.90;;;9.10;;
291;SDS011;23311;48.776;9.162;2023-01-28T10:27:23;14.07;;;9.40;;
291;SDS011;23311;48.776;9.162;2023-01-28T10:29:55;12.50;;;9.70;;
291;SDS011;23311;48.776;9.162;2023-01-28T10:32:27;13.23;;;9.80;;
291;SDS011;23311;48.776;9.162;2023-01-28T10:34:58;13.77;;;10.73;;
291;SDS011;23311;48.776;9.162;2023-01-28T10:37:29;12.13;;;10.50;;
291;SDS011;23311;48.776;9.162;2023-01-28T10:40:00;14.00;;;10.80;;
291;SDS011;23311;48.776;9.162;2023-01-28T10:42:30;15.87;;;10.47;;
291;SDS011;23311;48.776;9.162;2023-01-28T10:45:00;14.57;;;10.10;;
291;SDS011;23311;48.776;9.162;2023-01-28T10:47:33;12.03;;;9.70;;
291;SDS011;23311;48.776;9.162;2023-01-28T10:50:06;14.10;;;10.60;;
291;SDS011;23311;48.776;9.162;2023-01-28T10:52:51;15.30;;;10.50;;
291;SDS011;23311;48.776;9.162;2023-01-28T10:55:23;14.03;;;9.73;;
291;SDS011;23311;48.776;9.162;2023-01-28T10:57:55;14.00;;;10.03;;
291;SDS011;23311;48.776;9.162;2023-01-28T11:00:25;11.97;;;10.00;;
291;SDS011;23311;48.776;9.162;2023-01-28T11:02:56;15.60;;;10.33;;
291;SDS011;23311;48.776;9.162;2023-01-28T11:05:27;15.23;;;10.87;;
291;SDS011;23311;48.776;9.162;2023-01-28T11:08:03;14.30;;;10.73;;
291;SDS011;23311;48.776;9.162;2023-01-28T11:10:34;15.07;;;11.70;;
291;SDS011;23311;48.776;9.162;2023-01-28T11:13:04;13.57;;;10.30;;
291;SDS011;23311;48.776;9.162;2023-01-28T11:15:33;14.10;;;10.30;;
291;SDS011;23311;48.776;9.162;2023-01-28T11:18:02;10.97;;;8.27;;
291;SDS011;23311;48.776;9.162;2023-01-28T11:20:37;14.50;;;10.97;;
291;SDS011;23311;48.776;9.162;2023-01-28T11:23:16;15.67;;;10.20;;
291;SDS011;23311;48.776;9.162;2023-01-28T11:25:47;15.47;;;9.87;;
291;SDS011;23311;48.776;9.162;2023-01-28T11:28:17;15.67;;;10.27;;
291;SDS011;23311;48.776;9.162;2023-01-28T11:30:51;13.87;;;9.87;;
291;SDS011;23311;48.776;9.162;2023-01-28T11:33:21;11.17;;;8.53;;
291;SDS011;23311;48.776;9.162;2023-01-28T11:35:55;13.50;;;9.87;;
291;SDS011;23311;48.776;9.162;2023-01-28T11:38:25;13.43;;;9.97;;
291;SDS011;23311;48.776;9.162;2023-01-28T11:40:54;12.70;;;8.80;;
291;SDS011;23311;48.776;9.162;2023-01-28T11:43:24;11.80;;;9.17;;
291;SDS011;23311;48.776;9.162;2023-01-28T11:45:55;13.10;;;9.73;;
291;SDS011;23311;48.776;9.162;2023-01-28T11:48:36;14.73;;;11.30;;
291;SDS011;23311;48.776;9.162;2023-01-28T11:51:15;13.83;;;10.20;;
291;SDS011;23311;48.776;9.162;2023-01-28T11:54:04;12.93;;;9.17;;
291;SDS011;23311;48.776;9.162;2023-01-28T11:56:52;16.30;;;11.23;;
291;SDS011;23311;48.776;9.162;2023-01-28T11:59:38;16.97;;;10.67;;
291;SDS011;23311;48.776;9.162;2023-01-28T12:02:21;14.40;;;9.90;;
291;SDS011;23311;48.776;9.162;2023-01-28T12:05:12;13.80;;;11.10;;
291;SDS011;23311;48.776;9.162;2023-01-28T12:07:48;14.10;;;10.67;;
291;SDS011;23311;48.776;9.162;2023-01-28T12:10:24;15.90;;;10.60;;
291;SDS011;23311;48.776;9.162;2023-01-28T12:13:04;17.00;;;10.23;;
291;SDS011;23311;48.776;9.162;2023-01-28T12:18:41;15.47;;;11.53;;
291;SDS011;23311;48.776;9.162;2023-01-28T12:21:38;17.77;;;12.20;;
291;SDS011;23311;48.776;9.162;2023-01-28T12:24:22;13.67;;;10.93;;
291;SDS011;23311;48.776;9.162;2023-01-28T12:27:00;15.53;;;11.60;;
291;SDS011;23311;48.776;9.162;2023-01-28T12:29:38;17.40;;;11.90;;
291;SDS011;23311;48.776;9.162;2023-01-28T12:32:17;17.00;;;11.97;;
291;SDS011;23311;48.776;9.162;2023-01-28T12:35:19;15.83;;;11.30;;
291;SDS011;23311;48.776;9.162;2023-01-28T12:37:58;14.70;;;10.83;;
291;SDS011;23311;48.776;9.162;2023-01-28T12:40:44;15.63;;;10.97;;
291;SDS011;23311;48.776;9.162;2023-01-28T12:43:26;15.77;;;11.77;;
291;SDS011;23311;48.776;9.162;2023-01-28T12:46:08;14.40;;;11.83;;
291;SDS011;23311;48.776;9.162;2023-01-28T12:48:43;15.97;;;11.30;;
291;SDS011;23311;48.776;9.162;2023-01-28T12:51:14;17.93;;;12.30;;
291;SDS011;23311;48.776;9.162;2023-01-28T12:53:48;21.70;;;12.03;;
291;SDS011;23311;48.776;9.162;2023-01-28T12:56:22;15.67;;;10.43;;
291;SDS011;23311;48.776;9.162;2023-01-28T12:58:55;14.63;;;10.00;;
291;SDS011;23311;48.776;9.162;2023-01-28T13:01:27;16.23;;;10.97;;
291;SDS011;23311;48.776;9.162;2023-01-28T13:04:06;14.87;;;10.40;;
291;SDS011;23311;48.776;9.162;2023-01-28T13:06:39;17.17;;;9.80;;
291;SDS011;23311;48.776;9.162;2023-01-28T13:09:12;12.83;;;8.60;;
291;SDS011;23311;48.776;9.162;2023-01-28T13:11:46;12.00;;;8.70;;
291;SDS011;23311;48.776;9.162;2023-01-28T13:14:16;12.80;;;9.17;;
291;SDS011;23311;48.776;9.162;2023-01-28T13:16:55;11.33;;;7.23;;
291;SDS011;23311;48.776;9.162;2023-01-28T13:19:23;10.77;;;7.80;;
291;SDS011;23311;48.776;9.162;2023-01-28T13:22:09;9.70;;;6.70;;
291;SDS011;23311;48.776;9.162;2023-01-28T13:24:40;10.67;;;6.17;;
291;SDS011;23311;48.776;9.162;2023-01-28T13:27:20;10.27;;;6.40;;
291;SDS011;23311;48.776;9.162;2023-01-28T13:29:59;9.53;;;6.77;;
291;SDS011;23311;48.776;9.162;2023-01-28T13:32:31;10.20;;;7.90;;
291;SDS011;23311;48.776;9.162;2023-01-28T13:35:02;9.00;;;6.40;;
291;SDS011;23311;48.776;9.162;2023-01-28T13:37:33;9.13;;;6.60;;
291;SDS011;23311;48.776;9.162;2023-01-28T13:40:16;10.10;;;6.83;;
291;SDS011;23311;48.776;9.162;2023-01-28T13:42:58;12.13;;;7.30;;
291;SDS011;23311;48.776;9.162;2023-01-28T13:45:28;7.23;;;6.17;;
291;SDS011;23311;48.776;9.162;2023-01-28T13:47:59;11.37;;;7.30;;
291;SDS011;23311;48.776;9.162;2023-01-28T13:50:35;10.80;;;7.50;;
291;SDS011;23311;48.776;9.162;2023-01-28T13:53:15;9.57;;;8.03;;
291;SDS011;23311;48.776;9.162;2023-01-28T13:55:48;13.57;;;7.73;;
291;SDS011;23311;48.776;9.162;2023-01-28T13:58:43;11.77;;;7.90;;
291;SDS011;23311;48.776;9.162;2023-01-28T14:01:50;11.20;;;8.10;;
291;SDS011;23311;48.776;9.162;2023-01-28T14:04:49;10.70;;;8.10;;
291;SDS011;23311;48.776;9.162;2023-01-28T14:10:53;10.43;;;7.70;;
291;SDS011;23311;48.776;9.162;2023-01-28T14:13:38;11.47;;;8.80;;
291;SDS011;23311;48.776;9.162;2023-01-28T14:16:33;13.07;;;8.60;;
291;SDS011;23311;48.776;9.162;2023-01-28T14:19:08;13.73;;;9.70;;
291;SDS011;23311;48.776;9.162;2023-01-28T14:21:39;13.50;;;8.80;;
291;SDS011;23311;48.776;9.162;2023-01-28T14:24:11;10.70;;;8.30;;
291;SDS011;23311;48.776;9.162;2023-01-28T14:26:45;10.90;;;7.13;;
291;SDS011;23311;48.776;9.162;2023-01-28T14:29:23;11.03;;;7.93;;
291;SDS011;23311;48.776;9.162;2023-01-28T14:32:07;11.80;;;8.43;;
291;SDS011;23311;48.776;9.162;2023-01-28T14:34:40;12.73;;;8.80;;
291;SDS011;23311;48.776;9.162;2023-01-28T14:37:11;10.77;;;8.50;;
291;SDS011;23311;48.776;9.162;2023-01-28T14:39:43;15.10;;;10.67;;
291;SDS011;23311;48.776;9.162;2023-01-28T14:42:16;10.40;;;8.83;;
291;SDS011;23311;48.776;9.162;2023-01-28T14:44:50;10.70;;;8.97;;
291;SDS011;23311;48.776;9.162;2023-01-28T14:47:34;10.33;;;6.97;;
291;SDS011;23311;48.776;9.162;2023-01-28T14:50:19;9.53;;;7.70;;
291;SDS011;23311;48.776;9.162;2023-01-28T14:56:08;8.30;;;6.83;;
291;SDS011;23311;48.776;9.162;2023-01-28T14:58:45;9.87;;;7.20;;
291;SDS011;23311;48.776;9.162;2023-01-28T15:01:22;8.40;;;6.37;;
291;SDS011;23311;48.776;9.162;2023-01-28T15:03:51;8.80;;;6.70;;
291;SDS011;23311;48.776;9.162;2023-01-28T15:06:20;8.90;;;7.10;;
291;SDS011;23311;48.776;9.162;2023-01-28T15:08:50;8.03;;;6.40;;
291;SDS011;23311;48.776;9.162;2023-01-28T15:11:20;8.33;;;7.07;;
291;SDS011;23311;48.776;9.162;2023-01-28T15:13:51;8.40;;;7.00;;
291;SDS011;23311;48.776;9.162;2023-01-28T15:16:24;7.90;;;6.90;;
291;SDS011;23311;48.776;9.162;2023-01-28T15:18:54;8.30;;;6.57;;
291;SDS011;23311;48.776;9.162;2023-01-28T15:21:23;9.97;;;7.27;;
291;SDS011;23311;48.776;9.162;2023-01-28T15:23:54;8.20;;;6.80;;
291;SDS011;23311;48.776;9.162;2023-01-28T15:26:25;7.90;;;7.33;;
291;SDS011;23311;48.776;9.162;2023-01-28T15:28:55;9.07;;;7.87;;
291;SDS011;23311;48.776;9.162;2023-01-28T15:31:25;8.40;;;6.97;;
291;SDS011;23311;48.776;9.162;2023-01-28T15:33:56;9.30;;;7.40;;
291;SDS011;23311;48.776;9.162;2023-01-28T15:36:24;9.30;;;7.20;;
291;SDS011;23311;48.776;9.162;2023-01-28T15:38:53;7.73;;;6.80;;
291;SDS011;23311;48.776;9.162;2023-01-28T15:41:21;7.90;;;6.03;;
291;SDS011;23311;48.776;9.162;2023-01-28T15:43:53;9.60;;;6.90;;
291;SDS011;23311;48.776;9.162;2023-01-28T15:46:21;8.40;;;7.73;;
291;SDS011;23311;48.776;9.162;2023-01-28T15:48:52;7.60;;;5.63;;
291;SDS011;23311;48.776;9.162;2023-01-28T15:51:25;9.20;;;6.90;;